createdAt,value
2023-04-25T00:02:41.449Z,97064.00
2023-04-25T00:05:28.026Z,97097.59
2023-04-25T00:08:13.474Z,96966.44
2023-04-25T00:10:59.842Z,97036.44
2023-04-25T00:13:47.741Z,97105.72
2023-04-25T00:16:35.948Z,97108.41
2023-04-25T00:19:21.864Z,97097.69
2023-04-25T00:22:07.307Z,96918.00
2023-04-25T00:24:54.357Z,97031.88
2023-04-25T00:27:40.318Z,97067.72
2023-04-25T00:30:25.920Z,96928.09
2023-04-25T00:33:11.356Z,96961.75
2023-04-25T00:35:57.238Z,96899.28
2023-04-25T00:38:42.514Z,96980.84
2023-04-25T00:41:28.258Z,97099.22
2023-04-25T00:44:17.905Z,97005.44
2023-04-25T00:47:04.626Z,97091.59
2023-04-25T00:49:50.368Z,96961.81
2023-04-25T00:52:36.361Z,96982.91
2023-04-25T00:55:22.107Z,97087.47
2023-04-25T00:58:07.685Z,97081.19
2023-04-25T01:00:53.739Z,97065.84
2023-04-25T01:03:43.874Z,96954.84
2023-04-25T01:06:29.652Z,96915.94
2023-04-25T01:09:15.065Z,96978.63
2023-04-25T01:12:01.082Z,96892.66
2023-04-25T01:14:47.485Z,97086.47
2023-04-25T01:17:35.035Z,97079.16
2023-04-25T01:20:23.952Z,97036.06
2023-04-25T01:23:10.382Z,97051.38
2023-04-25T01:25:56.133Z,96922.81
2023-04-25T01:28:42.440Z,97069.84
2023-04-25T01:31:29.835Z,96903.63
2023-04-25T01:34:15.273Z,97047.66
2023-04-25T01:37:02.715Z,97043.78
2023-04-25T01:39:49.773Z,97044.59
2023-04-25T01:42:36.702Z,96907.53
2023-04-25T01:45:22.236Z,97039.22
2023-04-25T01:48:09.600Z,97087.50
2023-04-25T01:50:55.626Z,97076.44
2023-04-25T01:53:41.157Z,97073.53
2023-04-25T01:56:31.652Z,97026.06
2023-04-25T01:59:17.012Z,97068.41
2023-04-25T02:02:31.632Z,97032.25
2023-04-25T02:05:19.031Z,97066.25
2023-04-25T02:08:07.161Z,96929.47
2023-04-25T02:10:52.707Z,97061.22
2023-04-25T02:13:38.740Z,97070.19
2023-04-25T02:16:49.458Z,96972.13
2023-04-25T02:19:35.526Z,96928.69
2023-04-25T02:22:21.884Z,96893.88
2023-04-25T02:25:07.617Z,97054.63
2023-04-25T02:27:54.874Z,96885.63
2023-04-25T02:30:40.597Z,96963.84
2023-04-25T02:33:26.008Z,96919.19
2023-04-25T02:36:11.594Z,96996.13
2023-04-25T02:38:57.183Z,96869.59
2023-04-25T02:41:42.586Z,96866.28
2023-04-25T02:44:27.970Z,97037.03
2023-04-25T02:47:13.421Z,96858.59
2023-04-25T02:49:58.780Z,96977.19
2023-04-25T02:52:44.143Z,96859.53
2023-04-25T02:55:36.171Z,96980.25
2023-04-25T02:58:24.109Z,96877.56
2023-04-25T03:01:11.464Z,97023.69
2023-04-25T03:03:57.167Z,96990.72
2023-04-25T03:06:43.752Z,97026.78
2023-04-25T03:09:29.036Z,96890.72
2023-04-25T03:12:17.443Z,97030.38
2023-04-25T03:15:04.758Z,96852.63
2023-04-25T03:17:50.391Z,97022.56
2023-04-25T03:20:35.753Z,97000.63
2023-04-25T03:23:22.690Z,97029.28
2023-04-25T03:26:08.114Z,96841.09
2023-04-25T03:28:53.523Z,96876.34
2023-04-25T03:31:39.981Z,97024.88
2023-04-25T03:34:25.466Z,97045.16
2023-04-25T03:37:11.311Z,96903.16
2023-04-25T03:39:57.980Z,97001.38
2023-04-25T03:42:50.567Z,97013.63
2023-04-25T03:45:37.493Z,96846.78
2023-04-25T03:48:23.614Z,97031.22
2023-04-25T03:51:09.215Z,97012.13
2023-04-25T03:53:58.052Z,97037.75
2023-04-25T03:56:49.763Z,97066.00
2023-04-25T03:59:39.218Z,96933.66
2023-04-25T04:02:26.131Z,97010.69
2023-04-25T04:05:12.871Z,97048.09
2023-04-25T04:08:06.326Z,97009.22
2023-04-25T04:10:52.368Z,97114.53
2023-04-25T04:13:38.452Z,96931.06
2023-04-25T04:16:26.032Z,97032.56
2023-04-25T04:19:12.029Z,96957.38
2023-04-25T04:22:01.562Z,97020.28
2023-04-25T04:24:47.450Z,97037.47
2023-04-25T04:27:39.355Z,97057.56
2023-04-25T04:30:40.302Z,97028.41
2023-04-25T04:33:27.500Z,97037.66
2023-04-25T04:36:20.883Z,97023.06
2023-04-25T04:39:07.386Z,97033.28
2023-04-25T04:42:15.890Z,96859.66
2023-04-25T04:45:17.384Z,96854.00
2023-04-25T04:48:24.051Z,96778.56
2023-04-25T04:51:16.006Z,97017.78
2023-04-25T04:54:09.931Z,97050.44
2023-04-25T04:57:15.355Z,97028.84
2023-04-25T05:00:36.026Z,97023.31
2023-04-25T05:03:41.386Z,97025.63
2023-04-25T05:06:53.135Z,97030.84
2023-04-25T05:10:00.908Z,97020.53
2023-04-25T05:13:03.828Z,96878.34
2023-04-25T05:16:04.616Z,96833.59
2023-04-25T05:19:08.914Z,96995.16
2023-04-25T05:22:06.755Z,97019.41
2023-04-25T05:24:58.314Z,97031.53
2023-04-25T05:28:03.821Z,97020.78
2023-04-25T05:31:28.367Z,97021.22
2023-04-25T05:34:19.701Z,96949.09
2023-04-25T05:37:13.643Z,96951.06
2023-04-25T05:40:11.757Z,96912.31
2023-04-25T05:43:15.578Z,96864.97
2023-04-25T05:46:15.500Z,97016.78
2023-04-25T05:49:21.839Z,96990.72
2023-04-25T05:52:42.989Z,96852.78
2023-04-25T05:55:48.470Z,96955.34
2023-04-25T05:58:42.206Z,96844.41
2023-04-25T06:01:30.145Z,96982.06
2023-04-25T06:04:15.961Z,97002.47
2023-04-25T06:07:01.848Z,96961.69
2023-04-25T06:09:47.487Z,96959.03
2023-04-25T06:12:34.281Z,96840.09
2023-04-25T06:18:08.750Z,96996.34
2023-04-25T06:20:54.719Z,96985.53
2023-04-25T06:23:41.506Z,96974.03
2023-04-25T06:26:30.289Z,96981.94
2023-04-25T06:29:16.053Z,96902.44
2023-04-25T06:32:02.089Z,96971.72
2023-04-25T06:34:48.871Z,96833.91
2023-04-25T06:37:34.603Z,96957.22
2023-04-25T06:40:21.379Z,96836.31
2023-04-25T06:43:06.832Z,96961.81
2023-04-25T06:46:08.875Z,96973.06
2023-04-25T06:49:01.605Z,96934.63
2023-04-25T06:51:47.484Z,96853.03
2023-04-25T06:54:33.269Z,96959.63
2023-04-25T06:57:25.056Z,96954.56
2023-04-25T07:00:11.907Z,96998.63
2023-04-25T07:02:57.697Z,96851.88
2023-04-25T07:05:43.406Z,96814.06
2023-04-25T07:08:30.150Z,96939.75
2023-04-25T07:11:17.343Z,96847.53
2023-04-25T07:14:03.036Z,96931.41
2023-04-25T07:16:48.817Z,96825.81
2023-04-25T07:19:34.263Z,96744.09
2023-04-25T07:22:21.229Z,96846.44
2023-04-25T07:25:08.328Z,96927.22
2023-04-25T07:27:54.156Z,96962.34
2023-04-25T07:30:40.425Z,96875.28
2023-04-25T07:33:26.126Z,96927.75
2023-04-25T07:36:11.778Z,96827.94
2023-04-25T07:38:58.686Z,96876.78
2023-04-25T07:41:44.250Z,96812.47
2023-04-25T07:44:41.016Z,96922.50
2023-04-25T07:47:28.498Z,96801.31
2023-04-25T07:50:13.893Z,96949.59
2023-04-25T07:52:59.960Z,96948.06
2023-04-25T07:55:52.231Z,96935.28
2023-04-25T07:58:39.589Z,96942.28
2023-04-25T08:01:28.081Z,96809.22
2023-04-25T08:04:18.214Z,96819.09
2023-04-25T08:07:17.725Z,96948.03
2023-04-25T08:10:13.084Z,96955.63
2023-04-25T08:12:58.725Z,96914.78
2023-04-25T08:15:44.330Z,96799.34
2023-04-25T08:18:29.737Z,96922.69
2023-04-25T08:21:15.054Z,96951.47
2023-04-25T08:24:02.575Z,96949.91
2023-04-25T08:26:52.731Z,96889.31
2023-04-25T08:29:40.613Z,96940.09
2023-04-25T08:32:26.681Z,96778.72
2023-04-25T08:35:30.324Z,96948.34
2023-04-25T08:38:16.392Z,96656.19
2023-04-25T08:41:03.202Z,96889.56
2023-04-25T08:43:52.464Z,96896.97
2023-04-25T08:46:42.349Z,96925.84
2023-04-25T08:49:45.978Z,96935.72
2023-04-25T08:52:41.053Z,96876.41
2023-04-25T08:55:27.716Z,96908.59
2023-04-25T08:58:19.656Z,96781.56
2023-04-25T09:01:07.493Z,96788.44
2023-04-25T09:04:01.322Z,96892.34
2023-04-25T09:06:48.344Z,96732.63
2023-04-25T09:09:34.512Z,96881.31
2023-04-25T09:12:20.815Z,96950.28
2023-04-25T09:15:20.370Z,96936.00
2023-04-25T09:18:33.572Z,96945.41
2023-04-25T09:21:23.984Z,96773.09
2023-04-25T09:24:10.096Z,96919.88
2023-04-25T09:26:55.507Z,96805.13
2023-04-25T09:29:42.112Z,96867.66
2023-04-25T09:32:30.150Z,96936.91
2023-04-25T09:35:28.400Z,96894.22
2023-04-25T09:38:19.531Z,96775.41
2023-04-25T09:41:24.783Z,96803.44
2023-04-25T09:44:14.294Z,96815.53
2023-04-25T09:47:01.598Z,96931.22
2023-04-25T09:49:49.159Z,96887.94
2023-04-25T09:52:35.022Z,96773.56
2023-04-25T09:55:35.639Z,96936.63
2023-04-25T09:58:21.759Z,96915.47
2023-04-25T10:01:10.012Z,96796.84
2023-04-25T10:04:11.788Z,96749.94
2023-04-25T10:07:22.098Z,96915.59
2023-04-25T10:10:08.527Z,96887.16
2023-04-25T10:12:55.089Z,96798.22
2023-04-25T10:15:41.343Z,96931.59
2023-04-25T10:18:28.570Z,96894.25
2023-04-25T10:21:15.265Z,96761.16
2023-04-25T10:24:01.662Z,96899.72
2023-04-25T10:26:48.342Z,96912.78
2023-04-25T10:29:33.830Z,96884.50
2023-04-25T10:32:19.935Z,96738.41
2023-04-25T10:35:19.339Z,96830.56
2023-04-25T10:38:07.333Z,96888.94
2023-04-25T10:41:09.406Z,96882.78
2023-04-25T10:44:02.538Z,96874.53
2023-04-25T10:46:48.374Z,96741.50
2023-04-25T10:49:43.924Z,96855.72
2023-04-25T10:52:30.781Z,96885.16
2023-04-25T10:55:16.562Z,96771.69
2023-04-25T10:58:03.371Z,96857.06
2023-04-25T11:03:46.338Z,96893.63
2023-04-25T11:06:53.714Z,96874.81
2023-04-25T11:09:42.048Z,96887.28
2023-04-25T11:12:27.714Z,96826.66
2023-04-25T11:15:13.346Z,96854.59
2023-04-25T11:17:59.035Z,96888.72
2023-04-25T11:20:44.731Z,96863.50
2023-04-25T11:23:31.320Z,96841.50
2023-04-25T11:26:17.429Z,96887.53
2023-04-25T11:29:03.922Z,96706.66
2023-04-25T11:31:49.754Z,96846.81
2023-04-25T11:34:35.600Z,96712.56
2023-04-25T11:37:22.171Z,96858.22
2023-04-25T11:40:09.775Z,96844.06
2023-04-25T11:42:55.578Z,96789.66
2023-04-25T11:45:41.185Z,96858.91
2023-04-25T11:48:27.227Z,96740.50
2023-04-25T11:51:12.840Z,96696.88
2023-04-25T11:53:58.515Z,96852.22
2023-04-25T11:56:47.405Z,96848.13
2023-04-25T11:59:33.019Z,96707.38
2023-04-25T12:02:26.837Z,96762.47
2023-04-25T12:05:31.262Z,96843.72
2023-04-25T12:08:18.107Z,96704.47
2023-04-25T12:11:04.381Z,96832.38
2023-04-25T12:13:54.305Z,96685.78
2023-04-25T12:16:47.098Z,96431.75
2023-04-25T12:19:37.890Z,96804.13
2023-04-25T12:22:25.697Z,96825.41
2023-04-25T12:25:35.067Z,96663.22
2023-04-25T12:28:25.302Z,96772.59
2023-04-25T12:31:11.185Z,96825.19
2023-04-25T12:33:58.136Z,96637.53
2023-04-25T12:36:43.413Z,96818.44
2023-04-25T12:39:28.753Z,96733.19
2023-04-25T12:42:14.433Z,96778.78
2023-04-25T12:44:59.799Z,96678.84
2023-04-25T12:47:46.152Z,96820.09
2023-04-25T12:50:32.091Z,96699.31
2023-04-25T12:53:19.138Z,96664.34
2023-04-25T12:56:05.266Z,96685.66
2023-04-25T12:58:51.446Z,96787.25
2023-04-25T13:01:38.546Z,96804.38
2023-04-25T13:04:24.569Z,96791.34
2023-04-25T13:07:10.079Z,96745.81
2023-04-25T13:09:55.685Z,96744.97
2023-04-25T13:12:41.171Z,96797.94
2023-04-25T13:15:27.011Z,96793.06
2023-04-25T13:18:12.931Z,96788.59
2023-04-25T13:20:59.487Z,96794.13
2023-04-25T13:23:47.406Z,96757.22
2023-04-25T13:26:33.459Z,96783.72
2023-04-25T13:29:18.834Z,96774.50
2023-04-25T13:32:04.648Z,96774.38
2023-04-25T13:34:50.243Z,96662.97
2023-04-25T13:37:35.648Z,96675.41
2023-04-25T13:40:24.031Z,96784.75
2023-04-25T13:43:11.187Z,96633.88
2023-04-25T13:45:56.813Z,96792.03
2023-04-25T13:48:47.270Z,96754.94
2023-04-25T13:51:32.975Z,96794.50
2023-04-25T13:54:18.301Z,96761.63
2023-04-25T13:57:03.745Z,96758.78
2023-04-25T13:59:49.138Z,96818.22
2023-04-25T14:02:34.529Z,96751.19
2023-04-25T14:05:20.329Z,96687.84
2023-04-25T14:08:10.324Z,96664.44
2023-04-25T14:10:56.267Z,96828.16
2023-04-25T14:13:41.824Z,96691.53
2023-04-25T14:16:27.414Z,96799.13
2023-04-25T14:19:13.178Z,96835.53
2023-04-25T14:21:58.644Z,96684.78
2023-04-25T14:24:44.100Z,96774.19
2023-04-25T14:27:29.447Z,96758.25
2023-04-25T14:30:14.873Z,96844.88
2023-04-25T14:33:00.663Z,96829.91
2023-04-25T14:35:47.060Z,96826.13
2023-04-25T14:38:32.689Z,96725.47
2023-04-25T14:41:18.094Z,96842.81
2023-04-25T14:44:03.717Z,96834.00
2023-04-25T14:46:52.683Z,96850.91
2023-04-25T14:49:38.126Z,96822.16
2023-04-25T14:52:23.604Z,96830.72
2023-04-25T14:55:09.521Z,96837.94
2023-04-25T14:57:57.528Z,96808.34
2023-04-25T15:00:44.597Z,96868.25
2023-04-25T15:03:30.136Z,96870.56
2023-04-25T15:06:18.472Z,96863.34
2023-04-25T15:09:05.727Z,96892.22
2023-04-25T15:11:51.976Z,96862.44
2023-04-25T15:14:37.705Z,96833.53
2023-04-25T15:17:23.447Z,96896.19
2023-04-25T15:20:16.415Z,96869.22
2023-04-25T15:23:04.505Z,96862.38
2023-04-25T15:25:53.175Z,96819.81
2023-04-25T15:28:40.239Z,96725.84
2023-04-25T15:31:26.233Z,96698.28
2023-04-25T15:34:12.287Z,96577.41
2023-04-25T15:36:58.659Z,96806.59
2023-04-25T15:39:45.252Z,96782.38
2023-04-25T15:42:31.967Z,96843.84
2023-04-25T15:45:21.586Z,96813.53
2023-04-25T15:48:07.410Z,96839.06
2023-04-25T15:50:52.771Z,96676.28
2023-04-25T15:53:38.296Z,96828.84
2023-04-25T15:56:24.258Z,96828.47
2023-04-25T15:59:09.819Z,96829.56
2023-04-25T16:01:55.330Z,96819.84
2023-04-25T16:04:40.788Z,96808.38
2023-04-25T16:07:26.839Z,96674.63
2023-04-25T16:10:13.013Z,96680.00
2023-04-25T16:12:58.956Z,96668.53
2023-04-25T16:15:44.516Z,96690.41
2023-04-25T16:18:29.967Z,96833.03
2023-04-25T16:21:17.312Z,96826.47
2023-04-25T16:24:02.951Z,96708.09
2023-04-25T16:26:48.383Z,96862.13
2023-04-25T16:29:33.894Z,96833.25
2023-04-25T16:32:21.792Z,96852.72
2023-04-25T16:35:09.701Z,96846.47
2023-04-25T16:37:55.193Z,96811.84
2023-04-25T16:40:40.776Z,96834.25
2023-04-25T16:43:29.335Z,96851.13
2023-04-25T16:46:14.946Z,96870.38
2023-04-25T16:49:01.170Z,96804.75
2023-04-25T16:51:47.157Z,96767.94
2023-04-25T16:54:32.538Z,96823.34
2023-04-25T16:57:18.080Z,96813.38
2023-04-25T17:00:05.624Z,96788.09
2023-04-25T17:02:52.378Z,96835.88
2023-04-25T17:05:37.765Z,96863.09
2023-04-25T17:08:26.110Z,96708.47
2023-04-25T17:11:11.846Z,96861.25
2023-04-25T17:13:57.745Z,96852.25
2023-04-25T17:16:43.442Z,96808.78
2023-04-25T17:19:30.392Z,96915.78
2023-04-25T17:22:16.675Z,96927.94
2023-04-25T17:25:02.233Z,96779.47
2023-04-25T17:27:47.676Z,96870.38
2023-04-25T17:30:34.471Z,96737.72
2023-04-25T17:33:19.924Z,96881.28
2023-04-25T17:36:07.206Z,96811.41
2023-04-25T17:38:53.170Z,96920.56
2023-04-25T17:41:39.027Z,96780.66
2023-04-25T17:44:24.684Z,96895.34
2023-04-25T17:47:11.564Z,96932.59
2023-04-25T17:49:57.932Z,96905.97
2023-04-25T17:52:45.528Z,96968.81
2023-04-25T17:55:31.820Z,96919.50
2023-04-25T17:58:17.610Z,96938.81
2023-04-25T18:01:05.590Z,96898.03
2023-04-25T18:03:51.695Z,96808.09
2023-04-25T18:06:45.434Z,96949.28
2023-04-25T18:09:34.497Z,96956.63
2023-04-25T18:12:20.765Z,96838.66
2023-04-25T18:15:07.204Z,96747.88
2023-04-25T18:17:53.050Z,96895.22
2023-04-25T18:20:39.729Z,96960.66
2023-04-25T18:23:26.355Z,96928.22
2023-04-25T18:26:12.258Z,96964.09
2023-04-25T18:28:57.653Z,96981.53
2023-04-25T18:31:44.020Z,96956.78
2023-04-25T18:34:29.477Z,96984.91
2023-04-25T18:37:18.090Z,96989.94
2023-04-25T18:40:07.189Z,96979.63
2023-04-25T18:42:53.230Z,96990.13
2023-04-25T18:45:39.005Z,96844.13
2023-04-25T18:48:24.527Z,96998.50
2023-04-25T18:51:13.818Z,97007.41
2023-04-25T18:54:02.400Z,97003.47
2023-04-25T18:56:49.038Z,96988.03
2023-04-25T18:59:35.595Z,97001.03
2023-04-25T19:02:22.770Z,97005.88
2023-04-25T19:05:10.361Z,96826.19
2023-04-25T19:07:57.544Z,96970.66
2023-04-25T19:10:44.475Z,97004.25
2023-04-25T19:13:31.215Z,97001.84
2023-04-25T19:16:19.436Z,97023.66
2023-04-25T19:19:08.848Z,97005.50
2023-04-25T19:21:54.802Z,96825.31
2023-04-25T19:24:40.848Z,96938.19
2023-04-25T19:27:26.677Z,97012.19
2023-04-25T19:30:12.181Z,97015.59
2023-04-25T19:32:57.990Z,97033.75
2023-04-25T19:35:43.640Z,96900.38
2023-04-25T19:38:29.114Z,96995.94
2023-04-25T19:41:14.661Z,96849.13
2023-04-25T19:44:04.758Z,96920.25
2023-04-25T19:46:50.333Z,96934.69
2023-04-25T19:49:36.147Z,96972.69
2023-04-25T19:52:22.197Z,97042.91
2023-04-25T19:55:08.532Z,96915.88
2023-04-25T19:57:54.166Z,97027.13
2023-04-25T20:00:39.823Z,96984.84
2023-04-25T20:03:27.504Z,97028.06
2023-04-25T20:06:13.493Z,97043.50
2023-04-25T20:08:59.483Z,96872.97
2023-04-25T20:11:45.313Z,97032.66
2023-04-25T20:14:32.626Z,96862.13
2023-04-25T20:17:22.978Z,97016.53
2023-04-25T20:20:10.840Z,97052.38
2023-04-25T20:22:56.341Z,96911.72
2023-04-25T20:25:41.983Z,97027.31
2023-04-25T20:28:27.915Z,97025.63
2023-04-25T20:31:14.008Z,97083.38
2023-04-25T20:34:00.962Z,97033.19
2023-04-25T20:36:46.636Z,97039.94
2023-04-25T20:39:33.370Z,97035.94
2023-04-25T20:42:18.874Z,96948.09
2023-04-25T20:45:07.607Z,97005.53
2023-04-25T20:47:53.332Z,97036.97
2023-04-25T20:50:38.533Z,96965.97
2023-04-25T20:53:24.288Z,96853.53
2023-04-25T20:56:10.967Z,97039.16
2023-04-25T20:58:58.244Z,96957.81
2023-04-25T21:01:44.108Z,97024.66
2023-04-25T21:04:30.075Z,97013.06
2023-04-25T21:07:16.128Z,96838.75
2023-04-25T21:10:02.182Z,96861.44
2023-04-25T21:12:53.321Z,97048.06
2023-04-25T21:15:40.158Z,96985.31
2023-04-25T21:18:26.984Z,96978.34
2023-04-25T21:21:13.674Z,97044.91
2023-04-25T21:23:59.668Z,97014.97
2023-04-25T21:26:45.741Z,97054.56
2023-04-25T21:29:31.349Z,96871.22
2023-04-25T21:32:20.808Z,96858.91
2023-04-25T21:35:07.997Z,97003.09
2023-04-25T21:37:53.895Z,96968.16
2023-04-25T21:40:40.568Z,97074.84
2023-04-25T21:43:25.964Z,97058.06
2023-04-25T21:46:23.010Z,97037.66
2023-04-25T21:49:09.705Z,96985.72
2023-04-25T21:51:56.782Z,97005.63
2023-04-25T21:54:42.415Z,97038.97
2023-04-25T21:57:27.776Z,96978.63
2023-04-25T22:00:24.818Z,96852.94
2023-04-25T22:03:10.449Z,96993.50
2023-04-25T22:05:56.511Z,97049.78
2023-04-25T22:08:43.177Z,97059.84
2023-04-25T22:11:29.089Z,97053.84
2023-04-25T22:14:14.828Z,97045.44
2023-04-25T22:17:01.322Z,96904.78
2023-04-25T22:19:47.126Z,97019.66
2023-04-25T22:22:33.755Z,96899.09
2023-04-25T22:25:19.572Z,97043.47
2023-04-25T22:28:05.276Z,97015.59
2023-04-25T22:30:51.064Z,97062.13
2023-04-25T22:33:37.186Z,97043.41
2023-04-25T22:36:23.984Z,97058.44
2023-04-25T22:39:09.882Z,97017.84
2023-04-25T22:41:55.365Z,97052.59
2023-04-25T22:44:40.585Z,97010.03
2023-04-25T22:47:27.503Z,96900.69
2023-04-25T22:50:13.787Z,96876.97
2023-04-25T22:52:59.288Z,97019.81
2023-04-25T22:55:44.729Z,97044.63
2023-04-25T22:58:30.028Z,96862.66
2023-04-25T23:01:18.887Z,97036.53
2023-04-25T23:04:05.549Z,97024.81
2023-04-25T23:06:51.187Z,97014.78
2023-04-25T23:09:36.822Z,97083.19
2023-04-25T23:12:22.039Z,97034.41
2023-04-25T23:15:08.461Z,96891.31
2023-04-25T23:17:53.825Z,96985.03
2023-04-25T23:20:39.190Z,96999.06
2023-04-25T23:23:24.779Z,97000.25
2023-04-25T23:26:10.897Z,97058.81
2023-04-25T23:28:56.599Z,97004.94
2023-04-25T23:31:42.325Z,97034.47
2023-04-25T23:34:31.597Z,97001.16
2023-04-25T23:37:17.161Z,96870.38
2023-04-25T23:40:08.586Z,96885.59
2023-04-25T23:42:54.067Z,96881.66
2023-04-25T23:45:40.178Z,96853.72
2023-04-25T23:48:25.854Z,97049.84
2023-04-25T23:51:11.377Z,97026.66
2023-04-25T23:53:56.838Z,96891.97
2023-04-25T23:56:42.206Z,97047.56
2023-04-25T23:59:28.670Z,97044.09
